Latest Weather Observations for Warwick

IDQ60801

Issued at 11:32 am EST Tuesday 28 June 2016 (issued every 30 minutes, with the page automatically refreshed every 10 minutes)

About weather observations | Map of weather stations | Latest weather observations for QLD | Other Formats
Station Details ID: 041525 Name: WARWICK Lat: -28.21 Lon: 152.10 Height: 475.4 m
Data from the previous 72 hours. | See also: Recent months at Warwick
Date/Time
EST
Temp
°C
App
Temp
°C
Dew
Point
°C
Rel
Hum
%
Delta-T
°C
Wind Press
QNH
hPa
Press
MSL
hPa
Rain since
9am
mm
Dir  Spd
km/h
Gust
km/h
Spd
kts
Gust
kts
28/11:30am 11.1 6.3 2.5 55 3.8 WSW 17 24 9 13 1021.8 1021.6 0.0
28/11:00am 10.2 6.0 1.9 56 3.6 W 13 19 7 10 1021.9 1021.7 0.0
28/10:30am 9.6 5.4 1.9 58 3.3 WSW 13 20 7 11 1022.3 1022.2 0.0
28/10:00am 8.7 4.5 1.9 62 2.9 W 13 20 7 11 1022.6 1022.5 0.0
28/09:30am 7.8 4.0 1.6 65 2.6 SW 11 19 6 10 1022.7 1022.6 0.0
28/09:00am 7.0 2.7 0.9 65 2.5 WSW 13 20 7 11 1022.4 1022.3 0.0
28/08:30am 6.4 1.8 1.6 71 2.0 SW 15 20 8 11 1022.2 1022.0 0.0
28/08:00am 6.2 1.2 1.6 72 1.9 SW 17 24 9 13 1022.0 1021.8 0.0
28/07:30am 5.1 -0.4 0.9 74 1.7 WSW 19 26 10 14 1021.5 1021.4 0.0
28/07:00am 4.9 0.2 0.9 75 1.6 WSW 15 26 8 14 1021.4 1021.3 0.0
28/06:30am 4.2 -0.1 0.9 79 1.3 WSW 13 20 7 11 1020.7 1020.6 0.0
28/06:00am 5.0 0.3 0.7 74 1.7 WSW 15 26 8 14 1020.7 1020.6 0.0
28/05:30am 5.0 -0.5 0.7 74 1.7 WSW 19 33 10 18 1020.3 1020.1 0.0
28/05:00am 5.1 -0.3 1.1 75 1.6 WSW 19 28 10 15 1020.4 1020.2 0.0
28/04:30am 5.2 -0.2 1.0 74 1.7 WSW 19 30 10 16 1020.0 1019.8 0.0
28/04:00am 5.2 1.0 1.5 77 1.5 WSW 13 20 7 11 1020.0 1019.8 0.0
28/03:30am 4.9 0.7 1.4 78 1.4 WSW 13 20 7 11 1020.0 1019.8 0.0
28/03:00am 5.2 -0.4 1.5 77 1.5 WSW 20 33 11 18 1019.9 1019.7 0.0
28/02:30am 5.5 -1.6 1.3 74 1.7 WSW 28 39 15 21 1019.8 1019.6 0.0
28/02:00am 5.7 -0.6 1.6 75 1.7 WSW 24 35 13 19 1019.7 1019.5 0.0
28/01:30am 5.7 0.2 1.8 76 1.6 WSW 20 35 11 19 1019.6 1019.4 0.0
28/01:00am 5.6 -0.3 1.7 76 1.6 WSW 22 35 12 19 1019.7 1019.5 0.0
28/12:30am 5.7 0.2 2.1 78 1.5 WSW 20 30 11 16 1019.6 1019.4 0.0
28/12:00am 5.6 0.8 2.8 82 1.2 WSW 17 26 9 14 1019.6 1019.4 0.0
 
Date/Time
EST
Temp
°C
App
Temp
°C
Dew
Point
°C
Rel
Hum
%
Delta-T
°C
Wind Press
QNH
hPa
Press
MSL
hPa
Rain since
9am
mm
Dir  Spd
km/h
Gust
km/h
Spd
kts
Gust
kts
27/11:30pm 5.7 0.9 2.6 80 1.3 W 17 28 9 15 1019.3 1019.2 0.0
27/11:00pm 5.7 1.7 2.9 82 1.2 WSW 13 20 7 11 1019.8 1019.6 0.0
27/10:30pm 5.8 2.1 2.5 79 1.4 W 11 22 6 12 1019.9 1019.7 0.0
27/10:00pm 5.5 1.0 2.4 80 1.3 W 15 24 8 13 1019.8 1019.6 0.0
27/09:30pm 5.8 0.6 2.7 80 1.3 WSW 19 35 10 19 1019.6 1019.4 0.0
27/09:00pm 6.4 1.7 2.9 78 1.5 W 17 32 9 17 1019.2 1019.1 0.0
27/08:30pm 6.6 1.9 3.1 78 1.5 W 17 26 9 14 1019.1 1019.0 0.0
27/08:00pm 6.7 1.7 3.5 80 1.4 WSW 19 32 10 17 1018.9 1018.8 0.0
27/07:30pm 6.8 2.7 4.6 86 1.0 W 15 24 8 13 1018.8 1018.7 0.0
27/07:00pm 7.2 3.9 4.5 83 1.2 W 11 19 6 10 1018.6 1018.4 0.0
27/06:30pm 7.4 3.7 4.3 81 1.4 WNW 13 19 7 10 1018.2 1018.0 0.0
27/06:00pm 7.5 3.8 4.4 81 1.4 W 13 22 7 12 1018.1 1017.9 0.0
27/05:30pm 7.7 3.6 4.4 79 1.5 WSW 15 24 8 13 1017.8 1017.6 0.0
27/05:00pm 7.8 4.2 5.2 84 1.2 W 13 19 7 10 1017.1 1017.0 0.0
27/04:30pm 8.0 4.1 5.4 84 1.2 W 15 26 8 14 1016.8 1016.7 0.0
27/04:00pm 8.6 4.3 5.4 80 1.5 WSW 17 28 9 15 1016.5 1016.3 0.0
27/03:30pm 9.1 5.3 5.7 79 1.6 W 15 24 8 13 1016.2 1016.0 0.0
27/03:00pm 9.1 5.3 5.9 80 1.5 W 15 30 8 16 1015.7 1015.5 0.0
27/02:30pm 8.9 4.4 6.1 82 1.3 W 19 35 10 19 1015.5 1015.3 0.0
27/02:00pm 9.2 4.8 6.5 83 1.3 W 19 32 10 17 1015.2 1015.0 0.0
27/01:30pm 10.4 6.3 6.4 76 1.9 W 17 28 9 15 1015.1 1014.9 0.0
27/01:00pm 11.0 7.2 7.6 79 1.7 W 17 26 9 14 1015.2 1015.0 0.0
27/12:30pm 10.0 6.1 6.9 81 1.5 WNW 17 28 9 15 1015.3 1015.1 0.0
27/12:00pm 10.0 6.4 6.9 81 1.5 W 15 22 8 12 1015.6 1015.4 0.0
27/11:30am 9.6 5.7 7.3 85 1.1 W 17 26 9 14 1015.9 1015.7 0.0
27/11:00am 9.4 5.7 7.8 90 0.8 W 17 28 9 15 1016.5 1016.3 0.0
27/10:30am 9.7 5.6 7.7 87 1.0 WNW 19 26 10 14 1016.6 1016.4 0.0
27/10:00am 9.4 6.1 8.0 91 0.7 WNW 15 24 8 13 1016.8 1016.7 0.0
27/09:30am 8.9 5.6 7.9 93 0.5 NW 15 22 8 12 1016.8 1016.7 0.0
27/09:00am 8.8 6.2 7.8 93 0.5 WNW 11 17 6 9 1016.8 1016.7 2.4
27/08:30am 8.6 6.3 7.6 93 0.5 NW 9 17 5 9 1016.7 1016.5 2.2
27/08:00am 8.3 6.0 7.3 93 0.5 NNW 9 19 5 10 1016.3 1016.1 2.0
27/07:30am 8.6 7.7 7.6 93 0.5 N 2 11 1 6 1016.4 1016.2 1.6
27/07:00am 8.7 6.9 7.0 89 0.8 N 6 7 3 4 1016.2 1016.0 1.2
27/06:30am 8.7 6.4 7.3 91 0.7 NW 9 13 5 7 1016.1 1015.9 1.0
27/06:00am 8.8 6.9 7.4 91 0.7 WNW 7 15 4 8 1015.8 1015.6 1.0
27/05:30am 8.7 6.9 8.1 96 0.3 W 7 15 4 8 1015.8 1015.6 1.0
27/05:00am 8.8 7.1 8.2 96 0.3 W 7 13 4 7 1015.4 1015.2 1.0
27/04:30am 9.0 7.2 7.8 92 0.6 W 7 11 4 6 1015.3 1015.1 0.8
27/04:00am 9.2 7.2 7.3 88 0.9 W 7 11 4 6 1015.2 1015.0 0.4
27/03:30am 9.9 7.5 7.0 82 1.4 WNW 9 13 5 7 1015.3 1015.1 0.0
27/03:00am 9.9 7.0 6.6 80 1.6 WNW 11 17 6 9 1015.2 1015.0 0.0
27/02:30am 10.2 8.0 6.0 75 2.0 WNW 7 9 4 5 1015.2 1015.0 0.0
27/02:00am 11.0 9.0 6.4 73 2.2 NNW 6 11 3 6 1014.9 1014.7 0.0
27/01:30am 11.0 7.9 5.5 69 2.6 N 11 17 6 9 1014.4 1014.2 0.0
27/01:00am 8.1 6.6 6.6 90 0.7 WSW 4 9 2 5 1014.8 1014.6 0.0
27/12:30am 8.6 6.7 6.5 87 1.0 E 6 9 3 5 1014.9 1014.7 0.0
27/12:00am 8.6 7.9 6.9 89 0.8 CALM 0 0 0 0 1015.8 1015.6 0.0
 
Date/Time
EST
Temp
°C
App
Temp
°C
Dew
Point
°C
Rel
Hum
%
Delta-T
°C
Wind Press
QNH
hPa
Press
MSL
hPa
Rain since
9am
mm
Dir  Spd
km/h
Gust
km/h
Spd
kts
Gust
kts
26/11:30pm 8.5 7.7 6.6 88 0.9 CALM 0 0 0 0 1016.3 1016.1 0.0
26/11:00pm 9.0 8.2 6.5 84 1.2 CALM 0 0 0 0 1016.1 1015.9 0.0
26/10:30pm 9.2 8.4 6.7 84 1.2 CALM 0 0 0 0 1016.4 1016.2 0.0
26/10:00pm 9.3 8.4 5.9 79 1.6 CALM 0 0 0 0 1016.9 1016.8 0.0
26/09:30pm 9.3 8.5 6.4 82 1.4 CALM 0 0 0 0 1016.8 1016.7 0.0
26/09:00pm 9.3 8.4 6.1 80 1.5 CALM 0 0 0 0 1016.9 1016.8 0.0
26/08:30pm 9.6 8.8 6.5 81 1.5 CALM 0 0 0 0 1017.3 1017.1 0.0
26/08:00pm 9.9 9.0 6.1 77 1.8 CALM 0 0 0 0 1017.1 1017.0 0.0
26/07:30pm 10.0 7.5 6.4 78 1.7 NE 9 11 5 6 1017.3 1017.1 0.0
26/07:00pm 10.8 9.4 5.5 70 2.5 NE 2 7 1 4 1017.5 1017.3 0.0
26/06:30pm 10.8 9.4 5.7 71 2.4 N 2 6 1 3 1017.9 1017.7 0.0
26/06:00pm 11.5 9.2 4.6 62 3.2 NW 6 9 3 5 1017.7 1017.5 0.0
26/05:30pm 11.5 10.4 4.9 64 3.1 CALM 0 6 0 3 1017.3 1017.1 0.0
26/05:00pm 12.2 9.9 5.0 61 3.4 NNW 6 9 3 5 1016.6 1016.4 0.0
26/04:30pm 12.5 8.8 4.4 58 3.8 N 13 17 7 9 1016.2 1016.0 0.0
26/04:00pm 12.9 9.0 3.6 53 4.3 N 13 17 7 9 1016.6 1016.4 0.0
26/03:30pm 13.2 9.5 2.6 48 4.8 NNW 11 17 6 9 1016.9 1016.8 0.0
26/03:00pm 13.3 10.0 2.4 47 4.9 NNW 9 17 5 9 1016.9 1016.8 0.0
26/02:30pm 13.2 9.1 2.3 47 4.9 N 13 20 7 11 1016.5 1016.3 0.0
26/02:00pm 13.5 9.8 2.1 46 5.1 NNW 11 17 6 9 1017.0 1016.9 0.0
26/01:30pm 13.2 7.8 1.4 44 5.2 N 19 24 10 13 1017.5 1017.3 0.0
26/01:00pm 13.4 7.7 0.4 41 5.6 N 20 30 11 16 1017.8 1017.6 0.0
26/12:30pm 12.0 9.3 2.6 52 4.2 SW 6 9 3 5 1018.2 1018.0 0.0
26/12:00pm 10.8 8.9 2.7 57 3.6 S 2 7 1 4 1018.6 1018.4 0.0
26/11:30am 9.8 8.2 2.5 60 3.2 CALM 0 0 0 0 1019.7 1019.5 0.0
26/11:00am 9.2 7.6 2.2 61 3.0 CALM 0 0 0 0 1020.4 1020.2 0.0
26/10:30am 7.2 5.5 2.0 69 2.2 CALM 0 0 0 0 1020.5 1020.4 0.0
26/10:00am 6.1 4.3 0.9 69 2.1 CALM 0 0 0 0 1020.7 1020.6 0.0
26/09:30am 4.4 2.6 1.2 80 1.3 CALM 0 0 0 0 1020.6 1020.5 0.0
26/09:00am 2.9 0.9 0.0 81 1.1 CALM 0 0 0 0 1020.8 1020.7 0.0
26/08:30am 1.8 -0.2 0.2 89 0.6 CALM 0 0 0 0 1021.1 1021.0 0.0
26/08:00am 1.5 -0.5 0.2 91 0.5 CALM 0 0 0 0 1020.9 1020.8 0.0
26/07:30am 1.0 -1.8 -0.3 91 0.5 ENE 4 9 2 5 1020.6 1020.5 0.0
26/07:00am 0.7 - - - - CALM 0 0 0 0 1020.6 1020.5 0.0
26/06:30am 0.5 - - - - CALM 0 0 0 0 1020.4 1020.2 0.0
26/06:00am -0.6 - - - - CALM 0 0 0 0 1019.8 1019.6 0.0
26/05:30am -0.9 - - - - CALM 0 0 0 0 1019.2 1019.1 0.0
26/05:00am -0.9 - - - - CALM 0 0 0 0 1019.0 1018.9 0.0
26/04:30am -0.1 - - - - NE 6 9 3 5 1019.1 1019.0 0.0
26/04:00am -0.3 - - - - CALM 0 0 0 0 1018.5 1018.3 0.0
26/03:30am -0.7 - - - - CALM 0 0 0 0 1018.9 1018.8 0.0
26/03:00am -0.6 - - - - CALM 0 0 0 0 1018.9 1018.8 0.0
26/02:30am -0.2 - - - - CALM 0 0 0 0 1019.0 1018.9 0.0
26/02:00am -0.4 - - - - CALM 0 0 0 0 1019.2 1019.1 0.0
26/01:30am -0.2 - - - - CALM 0 0 0 0 1019.2 1019.1 0.0
26/01:00am 0.2 - - - - CALM 0 0 0 0 1019.2 1019.1 0.0
26/12:30am 0.4 -1.6 0.1 98 0.1 CALM 0 0 0 0 1019.5 1019.3 0.0
26/12:00am 0.1 - - - - CALM 0 0 0 0 1019.3 1019.2 0.0
 
Date/Time
EST
Temp
°C
App
Temp
°C
Dew
Point
°C
Rel
Hum
%
Delta-T
°C
Wind Press
QNH
hPa
Press
MSL
hPa
Rain since
9am
mm
Dir  Spd
km/h
Gust
km/h
Spd
kts
Gust
kts
25/11:30pm 0.8 -1.1 0.5 98 0.1 CALM 0 0 0 0 1020.0 1019.8 0.0
25/11:00pm 3.2 1.2 0.1 80 1.2 CALM 0 0 0 0 1020.1 1019.9 0.0
25/10:30pm 1.7 -0.3 -0.2 87 0.7 CALM 0 0 0 0 1020.4 1020.2 0.0
25/10:00pm 2.8 0.5 0.5 85 0.9 WNW 2 6 1 3 1020.6 1020.5 0.0
25/09:30pm 4.1 1.6 1.4 82 1.1 WNW 4 7 2 4 1020.3 1020.1 0.0
25/09:00pm 2.8 0.9 0.7 86 0.8 CALM 0 9 0 5 1020.0 1019.8 0.0
25/08:30pm 6.8 3.2 0.3 63 2.6 WNW 9 13 5 7 1019.9 1019.7 0.0
25/08:00pm 7.2 3.5 -0.3 59 3.0 WNW 9 15 5 8 1020.0 1019.8 0.0
25/07:30pm 6.5 2.9 0.3 64 2.5 W 9 13 5 7 1019.7 1019.5 0.0
25/07:00pm 7.0 2.9 0.0 61 2.8 W 11 15 6 8 1019.6 1019.4 0.0
25/06:30pm 7.2 3.6 0.3 61 2.8 W 9 15 5 8 1019.2 1019.1 0.0
25/06:00pm 7.3 3.4 1.0 64 2.6 W 11 17 6 9 1018.6 1018.4 0.0
25/05:30pm 8.2 4.6 0.7 59 3.1 W 9 15 5 8 1018.2 1018.0 0.0
25/05:00pm 8.8 5.3 1.2 59 3.2 WSW 9 15 5 8 1018.0 1017.8 0.0
25/04:30pm 11.0 6.6 0.3 47 4.5 WSW 13 20 7 11 1017.7 1017.5 0.0
25/04:00pm 12.1 7.6 -0.6 41 5.3 WSW 13 22 7 12 1017.5 1017.3 0.0
25/03:30pm 12.4 7.5 -0.8 40 5.5 WSW 15 22 8 12 1017.4 1017.2 0.0
25/03:00pm 12.8 8.3 -0.2 41 5.5 WSW 13 24 7 13 1017.4 1017.2 0.0
25/02:30pm 12.9 7.9 -1.4 37 5.9 W 15 30 8 16 1017.3 1017.1 0.0
25/02:00pm 12.8 7.8 -1.2 38 5.8 W 15 24 8 13 1017.3 1017.1 0.0
25/01:30pm 12.6 7.0 -3.1 33 6.2 WSW 17 28 9 15 1017.4 1017.2 0.0
25/01:00pm 12.7 7.4 -3.3 32 6.3 WSW 15 24 8 13 1017.6 1017.4 0.0
25/12:30pm 12.2 6.1 -4.2 31 6.3 WSW 19 32 10 17 1017.9 1017.7 0.0
25/12:00pm 11.5 5.1 -5.1 31 6.2 WSW 20 28 11 15 1018.2 1018.0 0.0

Other Formats:

Comma delimited format used in spreadsheet applications
http://www.bom.gov.au/fwo/IDQ60801/IDQ60801.94555.axf

JavaScript Object Notation format (JSON) in row-major order
http://www.bom.gov.au/fwo/IDQ60801/IDQ60801.94555.json